Time;durP1;ratioP1;P1;durP2;ratioP2;P2;SDS_P1;SDS_P2;PMS_P1;PMS_P2;Temp;Humidity;BMP_temperature;BMP_pressure;BME280_temperature;BME280_humidity;BME280_pressure;Samples;Min_cycle;Max_cycle;Signal;HPM_P1;HPM_P2
2022/03/02 00:00:43;;;;;;;8.50;5.93;;;0.20;72.00;;;;;;4936592;29;20051;-72
2022/03/02 00:03:09;;;;;;;6.53;5.30;;;0.20;72.40;;;;;;4936542;29;20473;-72
2022/03/02 00:05:36;;;;;;;8.10;6.18;;;0.20;72.40;;;;;;4936823;29;20032;-72
2022/03/02 00:08:04;;;;;;;8.18;6.03;;;0.20;71.30;;;;;;4934601;29;20385;-73
2022/03/02 00:10:31;;;;;;;9.25;5.22;;;0.10;70.40;;;;;;4936615;29;20389;-73
2022/03/02 00:12:57;;;;;;;6.88;5.85;;;0.10;70.20;;;;;;4936687;29;20036;-73
2022/03/02 00:15:24;;;;;;;10.15;6.07;;;0.10;70.50;;;;;;4936022;29;20042;-72
2022/03/02 00:17:51;;;;;;;9.98;5.75;;;0.10;70.90;;;;;;4935248;29;20492;-73
2022/03/02 00:20:18;;;;;;;7.85;6.40;;;0.00;71.40;;;;;;4936102;29;20036;-72
2022/03/02 00:22:44;;;;;;;6.55;5.40;;;0.00;71.50;;;;;;4943525;29;20042;-72
2022/03/02 00:25:10;;;;;;;6.57;5.82;;;0.00;71.40;;;;;;4938368;29;20044;-72
2022/03/02 00:27:37;;;;;;;8.15;6.30;;;-0.10;70.80;;;;;;4934968;29;20047;-72
2022/03/02 00:30:05;;;;;;;8.98;6.47;;;-0.10;70.60;;;;;;4935461;29;20401;-73
2022/03/02 00:32:31;;;;;;;8.57;6.40;;;-0.10;70.70;;;;;;4936206;29;20058;-73
2022/03/02 00:34:57;;;;;;;11.35;5.80;;;-0.20;71.40;;;;;;4935743;29;20074;-72
2022/03/02 00:37:23;;;;;;;8.82;6.80;;;-0.20;72.00;;;;;;4934912;29;20389;-72
2022/03/02 00:39:50;;;;;;;9.35;6.28;;;-0.30;72.90;;;;;;4936242;29;20039;-72
2022/03/02 00:42:16;;;;;;;8.70;6.38;;;-0.30;73.70;;;;;;4935501;29;20044;-72
2022/03/02 00:44:42;;;;;;;10.63;6.60;;;-0.40;73.70;;;;;;4935653;29;20032;-72
2022/03/02 00:47:09;;;;;;;6.28;5.68;;;-0.40;74.10;;;;;;4934336;29;20043;-72
2022/03/02 00:49:36;;;;;;;8.18;6.55;;;-0.50;74.90;;;;;;4937788;29;20112;-72
2022/03/02 00:52:03;;;;;;;12.13;6.20;;;-0.60;75.60;;;;;;4936219;29;20035;-74
2022/03/02 00:54:30;;;;;;;6.88;5.40;;;-0.60;75.90;;;;;;4945761;29;20055;-72
2022/03/02 00:56:57;;;;;;;10.45;6.82;;;-0.70;76.40;;;;;;4934842;29;20027;-72
2022/03/02 00:59:23;;;;;;;9.20;6.18;;;-0.80;76.50;;;;;;4934951;29;20032;-72
2022/03/02 01:01:49;;;;;;;10.20;7.20;;;-0.90;76.80;;;;;;4935650;29;20520;-72
2022/03/02 01:04:16;;;;;;;8.18;6.85;;;-0.90;76.90;;;;;;4935149;29;20142;-73
2022/03/02 01:06:42;;;;;;;8.75;7.03;;;-1.00;77.30;;;;;;4933711;29;20044;-73
2022/03/02 01:09:08;;;;;;;10.32;6.45;;;-1.00;78.00;;;;;;4941352;29;20027;-72
2022/03/02 01:11:34;;;;;;;10.15;7.20;;;-1.00;78.60;;;;;;4934818;29;20032;-73
2022/03/02 01:14:01;;;;;;;9.48;6.53;;;-1.00;78.90;;;;;;4948293;29;20355;-75
2022/03/02 01:16:27;;;;;;;7.75;6.78;;;-1.10;77.90;;;;;;4934358;29;20042;-72
2022/03/02 01:18:54;;;;;;;8.48;6.50;;;-1.20;77.60;;;;;;4935471;29;20035;-72
2022/03/02 01:21:20;;;;;;;8.88;7.15;;;-1.20;77.80;;;;;;4934776;29;20121;-72
2022/03/02 01:23:46;;;;;;;10.23;8.07;;;-1.20;77.90;;;;;;4935407;29;20042;-72
2022/03/02 01:26:13;;;;;;;12.52;9.18;;;-1.20;78.10;;;;;;4948138;28;20503;-72
2022/03/02 01:28:39;;;;;;;11.00;8.13;;;-1.20;78.60;;;;;;4935609;29;20072;-72
2022/03/02 01:31:05;;;;;;;8.02;7.22;;;-1.10;78.30;;;;;;4934580;29;20492;-72
2022/03/02 01:33:32;;;;;;;10.73;7.57;;;-1.10;78.30;;;;;;4935209;29;20047;-72
2022/03/02 01:35:58;;;;;;;10.75;8.00;;;-1.10;78.30;;;;;;4934349;29;20104;-73
2022/03/02 01:38:24;;;;;;;11.20;7.60;;;-1.20;78.40;;;;;;4934203;29;20034;-72
2022/03/02 01:40:50;;;;;;;9.57;7.03;;;-1.30;79.00;;;;;;4935170;29;20034;-72
2022/03/02 01:43:16;;;;;;;10.43;8.25;;;-1.30;79.00;;;;;;4934845;29;20048;-72
2022/03/02 01:45:43;;;;;;;9.85;8.05;;;-1.30;79.90;;;;;;4934809;29;20047;-72
2022/03/02 01:48:09;;;;;;;16.52;8.27;;;-1.30;79.90;;;;;;4935046;29;20112;-73
2022/03/02 01:50:35;;;;;;;13.88;8.50;;;-1.40;80.30;;;;;;4947731;29;20055;-72
2022/03/02 01:53:02;;;;;;;8.13;7.10;;;-1.30;81.10;;;;;;4934581;29;20032;-75
2022/03/02 01:55:28;;;;;;;13.98;7.60;;;-1.30;81.20;;;;;;4941588;29;20036;-72
2022/03/02 01:57:56;;;;;;;10.75;6.97;;;-1.40;81.50;;;;;;4933928;29;20043;-72
2022/03/02 02:00:24;;;;;;;13.20;8.02;;;-1.50;81.90;;;;;;4940957;29;20051;-72
2022/03/02 02:02:50;;;;;;;8.70;7.70;;;-1.50;82.50;;;;;;4944520;29;20051;-72
2022/03/02 02:05:17;;;;;;;8.15;7.38;;;-1.60;82.40;;;;;;4951640;28;20401;-72
2022/03/02 02:07:44;;;;;;;11.32;8.63;;;-1.70;83.20;;;;;;4938313;29;20027;-72
2022/03/02 02:10:11;;;;;;;12.25;8.07;;;-1.70;84.10;;;;;;4939014;28;20038;-72
2022/03/02 02:12:37;;;;;;;7.78;6.75;;;-1.70;84.40;;;;;;4938783;29;20075;-72
2022/03/02 02:15:05;;;;;;;9.80;8.23;;;-1.70;85.10;;;;;;4937941;29;20051;-72
2022/03/02 02:17:31;;;;;;;12.15;8.02;;;-1.70;85.50;;;;;;4937091;29;20035;-72
2022/03/02 02:19:57;;;;;;;17.50;8.07;;;-1.70;86.00;;;;;;4938393;29;20031;-72
2022/03/02 02:22:23;;;;;;;11.05;8.40;;;-1.70;85.70;;;;;;4938148;29;20047;-72
2022/03/02 02:24:50;;;;;;;8.88;8.02;;;-1.80;86.50;;;;;;4938755;29;20035;-72
2022/03/02 02:27:17;;;;;;;10.80;8.00;;;-1.80;86.30;;;;;;4939513;29;20050;-72
2022/03/02 02:29:47;;;;;;;9.68;7.90;;;-1.80;86.20;;;;;;4938250;29;20030;-72
2022/03/02 02:32:13;;;;;;;13.60;8.85;;;-1.90;86.20;;;;;;4937843;29;20047;-72
2022/03/02 02:34:41;;;;;;;16.40;9.15;;;-1.90;86.80;;;;;;4948715;29;20473;-72
2022/03/02 02:37:08;;;;;;;11.27;8.40;;;-1.90;85.90;;;;;;4936003;29;20374;-72
2022/03/02 02:39:36;;;;;;;12.70;8.27;;;-2.00;86.10;;;;;;4945646;29;20047;-72
2022/03/02 02:42:08;;;;;;;10.20;8.38;;;-2.00;87.20;;;;;;4946177;29;20046;-73
2022/03/02 02:44:35;;;;;;;10.88;9.00;;;-2.00;87.00;;;;;;4938582;29;20038;-72
2022/03/02 02:47:02;;;;;;;10.27;9.15;;;-2.00;87.10;;;;;;4935994;29;20031;-72
2022/03/02 02:49:28;;;;;;;10.95;8.85;;;-2.00;86.90;;;;;;4946263;29;20062;-72
2022/03/02 02:51:55;;;;;;;12.50;8.55;;;-2.00;87.20;;;;;;4947914;29;20036;-72
2022/03/02 02:54:21;;;;;;;12.80;9.25;;;-2.00;87.00;;;;;;4951089;29;20031;-73
2022/03/02 02:56:48;;;;;;;10.65;9.55;;;-2.10;87.30;;;;;;4953625;29;20058;-72
2022/03/02 02:59:14;;;;;;;17.85;9.13;;;-2.20;88.00;;;;;;4954577;28;20035;-72
2022/03/02 03:01:40;;;;;;;17.00;10.52;;;-2.20;88.50;;;;;;4940369;29;20043;-73
2022/03/02 03:04:06;;;;;;;14.50;9.88;;;-2.30;89.00;;;;;;4937169;29;20047;-72
2022/03/02 03:06:33;;;;;;;18.13;10.10;;;-2.30;89.60;;;;;;4936452;29;20028;-73
2022/03/02 03:09:00;;;;;;;15.75;9.93;;;-2.20;90.00;;;;;;4937534;29;20039;-76
2022/03/02 03:11:26;;;;;;;14.02;10.75;;;-2.20;90.00;;;;;;4937754;29;20500;-73
2022/03/02 03:13:52;;;;;;;11.50;9.02;;;-2.20;90.10;;;;;;4937571;29;20400;-73
2022/03/02 03:16:18;;;;;;;16.83;9.45;;;-2.20;90.20;;;;;;4935485;29;20614;-72
2022/03/02 03:18:45;;;;;;;13.23;9.18;;;-2.20;90.40;;;;;;4952991;28;20051;-72
2022/03/02 03:21:11;;;;;;;13.38;10.10;;;-2.10;90.60;;;;;;4937109;29;20043;-73
2022/03/02 03:23:38;;;;;;;13.40;10.77;;;-2.10;91.00;;;;;;4952020;28;20059;-73
2022/03/02 03:26:04;;;;;;;13.07;10.93;;;-2.00;90.90;;;;;;4935875;29;20031;-73
2022/03/02 03:28:30;;;;;;;21.65;10.02;;;-2.00;90.60;;;;;;4952179;29;20373;-73
2022/03/02 03:30:56;;;;;;;11.90;9.90;;;-2.00;90.60;;;;;;4943483;29;20035;-72
2022/03/02 03:33:23;;;;;;;10.48;8.88;;;-2.00;90.90;;;;;;4943516;29;20467;-72
2022/03/02 03:35:49;;;;;;;11.15;9.70;;;-1.90;91.00;;;;;;4952932;28;20055;-72
2022/03/02 03:38:16;;;;;;;17.05;10.93;;;-1.90;91.00;;;;;;4937705;29;20052;-72
2022/03/02 03:40:42;;;;;;;12.75;10.73;;;-1.90;90.60;;;;;;4951996;29;20369;-73
2022/03/02 03:43:08;;;;;;;12.43;9.40;;;-2.00;90.80;;;;;;4936716;29;20046;-73
2022/03/02 03:45:34;;;;;;;10.25;8.95;;;-2.00;91.00;;;;;;4937093;29;20036;-74
2022/03/02 03:48:01;;;;;;;10.98;9.80;;;-1.90;91.20;;;;;;4935485;29;20032;-75
2022/03/02 03:50:27;;;;;;;11.50;10.13;;;-1.90;91.70;;;;;;4936865;29;20374;-73
2022/03/02 03:52:53;;;;;;;13.73;9.60;;;-1.80;91.70;;;;;;4936634;29;20055;-73
2022/03/02 03:55:19;;;;;;;11.73;9.02;;;-1.80;91.10;;;;;;4935150;29;20036;-72
2022/03/02 03:57:45;;;;;;;16.05;10.45;;;-1.90;91.00;;;;;;4934670;29;20046;-73
2022/03/02 04:00:15;;;;;;;13.95;10.18;;;-1.90;91.20;;;;;;4954250;29;20051;-74
2022/03/02 04:02:42;;;;;;;13.32;10.85;;;-2.00;91.30;;;;;;4937093;29;20050;-74
2022/03/02 04:05:09;;;;;;;13.85;10.02;;;-2.00;91.90;;;;;;4936249;29;20043;-74
2022/03/02 04:07:36;;;;;;;13.13;10.52;;;-2.10;91.80;;;;;;4935686;29;20039;-74
2022/03/02 04:10:08;;;;;;;13.63;10.45;;;-2.10;92.10;;;;;;4958318;28;20047;-77
2022/03/02 04:12:34;;;;;;;;;;;-2.20;92.20;;;;;;4951391;28;20051;-74
2022/03/02 04:15:01;;;;;;;15.68;11.15;;;-2.20;92.70;;;;;;4938953;29;19936;-76
2022/03/02 04:17:27;;;;;;;15.35;10.70;;;-2.20;92.80;;;;;;4937619;29;20032;-74
2022/03/02 04:19:53;;;;;;;13.55;10.88;;;-2.20;92.70;;;;;;4938074;29;20032;-74
2022/03/02 04:22:20;;;;;;;23.55;13.68;;;-2.20;93.00;;;;;;4939423;29;20050;-74
2022/03/02 04:24:46;;;;;;;16.17;11.32;;;-2.20;93.10;;;;;;4950129;28;20047;-74
2022/03/02 04:27:13;;;;;;;18.17;11.07;;;-2.20;93.30;;;;;;4933946;29;20032;-74
2022/03/02 04:29:40;;;;;;;14.95;10.75;;;-2.30;93.30;;;;;;4951027;28;20091;-74
2022/03/02 04:32:06;;;;;;;18.50;11.55;;;-2.40;93.60;;;;;;4934784;29;20047;-74
2022/03/02 04:34:33;;;;;;;15.02;11.35;;;-2.50;94.10;;;;;;4942796;29;20051;-74
2022/03/02 04:36:59;;;;;;;15.82;11.23;;;-2.50;94.70;;;;;;4934155;29;20058;-74
2022/03/02 04:39:25;;;;;;;16.20;11.25;;;-2.50;95.20;;;;;;4950533;28;20039;-74
2022/03/02 04:41:51;;;;;;;12.05;9.27;;;-2.50;95.50;;;;;;4936010;29;20032;-74
2022/03/02 04:44:18;;;;;;;11.30;10.18;;;-2.50;96.20;;;;;;4935281;29;20036;-74
2022/03/02 04:46:48;;;;;;;11.70;10.15;;;-2.40;96.60;;;;;;4934155;29;20031;-74
2022/03/02 04:49:18;;;;;;;14.25;10.30;;;-2.50;96.40;;;;;;4936099;29;20047;-74
2022/03/02 04:51:48;;;;;;;17.17;10.90;;;-2.30;96.80;;;;;;4935673;29;20035;-74
2022/03/02 04:57:03;;;;;;;20.55;10.77;;;-2.50;96.40;;;;;;4933529;29;20032;-77
2022/03/02 04:59:29;;;;;;;13.52;10.82;;;-2.50;97.10;;;;;;4935524;29;20070;-74
2022/03/02 05:01:55;;;;;;;21.60;10.02;;;-2.50;97.00;;;;;;4935090;29;20060;-74
2022/03/02 05:04:21;;;;;;;11.02;9.93;;;-2.50;96.70;;;;;;4947623;29;20615;-74
2022/03/02 05:06:48;;;;;;;20.30;11.95;;;-2.50;96.70;;;;;;4934660;29;20139;-74
2022/03/02 05:09:14;;;;;;;15.65;9.88;;;-2.50;96.60;;;;;;4935363;29;20047;-73
2022/03/02 05:11:40;;;;;;;16.50;9.77;;;-2.50;96.70;;;;;;4935836;29;20466;-74
2022/03/02 05:14:06;;;;;;;10.32;8.65;;;-2.50;97.20;;;;;;4933139;29;20381;-74
2022/03/02 05:16:32;;;;;;;13.57;9.68;;;-2.50;97.30;;;;;;4933689;29;20027;-74
2022/03/02 05:18:58;;;;;;;14.77;11.05;;;-2.50;97.20;;;;;;4935261;29;20023;-73
2022/03/02 05:21:25;;;;;;;13.38;10.73;;;-2.50;97.20;;;;;;4935130;29;20039;-73
2022/03/02 05:23:51;;;;;;;12.25;10.50;;;-2.60;97.20;;;;;;4935268;29;20035;-73
2022/03/02 05:26:17;;;;;;;19.27;11.55;;;-2.50;97.70;;;;;;4941232;29;20039;-73
2022/03/02 05:28:43;;;;;;;12.35;11.15;;;-2.40;97.60;;;;;;4943427;29;20050;-73
2022/03/02 05:31:09;;;;;;;15.55;10.55;;;-2.30;97.60;;;;;;4934623;29;20036;-73
2022/03/02 05:33:36;;;;;;;10.77;9.68;;;-2.30;97.00;;;;;;4949672;28;20481;-73
2022/03/02 05:36:02;;;;;;;12.93;11.20;;;-2.30;96.60;;;;;;4933381;29;20036;-76
2022/03/02 05:38:28;;;;;;;14.75;11.05;;;-2.20;97.00;;;;;;4938143;29;20027;-73
2022/03/02 05:40:54;;;;;;;18.83;13.30;;;-2.10;97.30;;;;;;4941209;29;20035;-73
2022/03/02 05:43:20;;;;;;;18.73;12.75;;;-2.10;96.60;;;;;;4937601;29;20042;-73
2022/03/02 05:45:47;;;;;;;15.95;11.20;;;-2.00;96.30;;;;;;4942539;29;20039;-73
2022/03/02 05:48:13;;;;;;;12.63;10.55;;;-2.00;95.90;;;;;;4941478;29;20039;-73
2022/03/02 05:50:39;;;;;;;12.43;10.65;;;-2.00;95.60;;;;;;4948695;29;20031;-74
2022/03/02 05:53:05;;;;;;;21.27;11.02;;;-2.00;95.80;;;;;;4947553;29;20088;-76
2022/03/02 05:55:31;;;;;;;11.75;9.98;;;-2.00;95.80;;;;;;4948017;29;20031;-73
2022/03/02 05:57:57;;;;;;;14.50;9.93;;;-1.90;95.80;;;;;;4948113;29;20457;-74
2022/03/02 06:00:24;;;;;;;17.65;11.20;;;-1.80;95.90;;;;;;4944240;28;20124;-74
2022/03/02 06:02:50;;;;;;;16.02;10.55;;;-1.70;95.20;;;;;;4948034;29;20039;-73
2022/03/02 06:05:16;;;;;;;17.38;10.50;;;-1.60;94.90;;;;;;4946939;29;20040;-73
2022/03/02 06:07:42;;;;;;;11.30;10.23;;;-1.60;94.50;;;;;;4948053;29;20038;-73
2022/03/02 06:10:09;;;;;;;10.05;9.05;;;-1.60;94.70;;;;;;4947147;29;20393;-74
2022/03/02 06:12:36;;;;;;;13.30;9.90;;;-1.50;94.70;;;;;;4948388;29;20043;-74
2022/03/02 06:15:04;;;;;;;10.90;9.70;;;-1.50;94.80;;;;;;4948069;29;20046;-76
2022/03/02 06:17:30;;;;;;;15.50;10.23;;;-1.40;94.80;;;;;;4942458;29;20038;-74
2022/03/02 06:19:56;;;;;;;17.80;11.02;;;-1.40;95.10;;;;;;4943274;29;20073;-73
2022/03/02 06:22:25;;;;;;;11.85;10.30;;;-1.30;95.10;;;;;;4948381;29;20070;-74
2022/03/02 06:24:52;;;;;;;11.82;10.63;;;-1.20;94.40;;;;;;4946017;29;20035;-74
2022/03/02 06:27:20;;;;;;;11.57;10.38;;;-1.20;94.00;;;;;;4945161;29;20031;-76
2022/03/02 06:29:46;;;;;;;11.15;9.73;;;-1.10;94.20;;;;;;4947486;29;20039;-74
2022/03/02 06:32:13;;;;;;;13.20;10.82;;;-1.10;94.20;;;;;;4961995;28;20055;-74
2022/03/02 06:34:39;;;;;;;12.77;10.00;;;-1.10;94.10;;;;;;4947146;29;20039;-74
2022/03/02 06:37:06;;;;;;;16.00;10.27;;;-1.00;94.10;;;;;;4945744;29;20043;-75
2022/03/02 06:39:32;;;;;;;14.45;11.55;;;-1.00;94.00;;;;;;4947094;29;20031;-75
2022/03/02 06:42:21;;;;;;;49.92;15.52;;;-0.90;93.30;;;;;;4946916;29;20468;-74
2022/03/02 06:45:10;;;;;;;11.88;10.10;;;-0.80;92.80;;;;;;4946214;29;20051;-74
2022/03/02 06:48:10;;;;;;;21.67;12.27;;;-0.70;92.30;;;;;;4949277;29;20034;-74
2022/03/02 06:50:38;;;;;;;14.73;11.35;;;-0.60;91.90;;;;;;4945526;29;20042;-74
2022/03/02 06:53:08;;;;;;;17.27;12.10;;;-0.50;91.70;;;;;;4947114;29;20389;-76
2022/03/02 06:55:35;;;;;;;13.33;12.00;;;-0.40;91.10;;;;;;4948929;28;20043;-73
2022/03/02 06:58:03;;;;;;;12.25;10.38;;;-0.30;90.60;;;;;;4951450;29;20389;-74
2022/03/02 07:00:32;;;;;;;16.63;12.07;;;-0.30;90.30;;;;;;4947757;29;20039;-75
2022/03/02 07:03:09;;;;;;;15.75;12.68;;;-0.20;90.10;;;;;;4949974;29;20476;-75
2022/03/02 07:05:37;;;;;;;13.43;11.70;;;-0.10;90.30;;;;;;4949452;29;20035;-75
2022/03/02 07:08:04;;;;;;;15.25;11.30;;;0.00;90.10;;;;;;4945564;29;20042;-76
2022/03/02 07:10:37;;;;;;;10.93;9.35;;;0.10;89.20;;;;;;4951098;29;20464;-75
2022/03/02 07:13:05;;;;;;;15.23;11.20;;;0.20;87.70;;;;;;4950755;29;20098;-75
2022/03/02 07:15:32;;;;;;;19.38;10.25;;;0.20;87.80;;;;;;4952259;29;20110;-75
2022/03/02 07:17:59;;;;;;;13.63;10.63;;;0.30;87.30;;;;;;4948495;29;20039;-76
2022/03/02 07:20:29;;;;;;;14.48;10.07;;;0.40;86.30;;;;;;4947167;29;20031;-75
2022/03/02 07:22:57;;;;;;;12.88;10.57;;;0.40;85.70;;;;;;4947763;29;20038;-75
2022/03/02 07:25:29;;;;;;;12.65;10.35;;;0.40;84.70;;;;;;4948953;29;20104;-75
2022/03/02 07:27:59;;;;;;;12.20;9.38;;;0.50;83.80;;;;;;4949683;29;20126;-75
2022/03/02 07:30:26;;;;;;;11.10;10.00;;;0.60;84.40;;;;;;4947398;29;20027;-75
2022/03/02 07:33:01;;;;;;;11.93;10.25;;;0.80;84.00;;;;;;4953300;29;20039;-75
2022/03/02 07:35:35;;;;;;;14.45;11.18;;;0.90;82.50;;;;;;4947753;29;20031;-76
2022/03/02 07:38:03;;;;;;;11.57;10.25;;;1.00;82.30;;;;;;4949721;29;20038;-76
2022/03/02 07:40:29;;;;;;;13.32;10.40;;;1.00;81.80;;;;;;4947358;29;20033;-75
2022/03/02 07:42:55;;;;;;;16.58;10.35;;;1.00;81.60;;;;;;4951084;29;20035;-75
2022/03/02 07:45:21;;;;;;;11.50;10.45;;;1.10;81.20;;;;;;4949357;29;20031;-75
2022/03/02 07:47:48;;;;;;;26.90;12.02;;;1.20;80.90;;;;;;4950515;29;20035;-75
2022/03/02 07:50:16;;;;;;;15.07;12.07;;;1.30;81.00;;;;;;4949224;29;20051;-75
2022/03/02 07:52:49;;;;;;;18.98;10.80;;;1.40;80.00;;;;;;4950214;29;20043;-75
2022/03/02 07:55:17;;;;;;;17.67;9.05;;;1.40;79.90;;;;;;4949741;29;20469;-75
2022/03/02 07:57:44;;;;;;;13.95;11.80;;;1.40;79.20;;;;;;4948033;29;20058;-75
2022/03/02 08:00:13;;;;;;;23.67;10.75;;;1.50;78.80;;;;;;4948267;29;20389;-75
2022/03/02 08:02:40;;;;;;;14.30;10.82;;;1.60;77.70;;;;;;4948086;28;20059;-75
2022/03/02 08:05:08;;;;;;;15.32;11.10;;;1.70;77.60;;;;;;4946647;29;20043;-75
2022/03/02 08:07:35;;;;;;;11.98;10.63;;;1.60;77.70;;;;;;4947604;28;20027;-75
2022/03/02 08:10:03;;;;;;;12.40;10.00;;;1.80;77.60;;;;;;4947276;29;20051;-75
2022/03/02 08:12:30;;;;;;;10.65;9.57;;;2.00;76.20;;;;;;4952118;29;20389;-75
2022/03/02 08:14:57;;;;;;;10.88;9.73;;;2.10;75.30;;;;;;4951885;29;20043;-75
2022/03/02 08:17:23;;;;;;;60.63;18.63;;;2.20;75.00;;;;;;4950525;29;20058;-74
2022/03/02 08:19:50;;;;;;;10.15;9.00;;;2.30;75.00;;;;;;4944375;29;20046;-74
2022/03/02 08:22:19;;;;;;;10.15;9.07;;;2.30;75.10;;;;;;4949575;29;20047;-75
2022/03/02 08:24:53;;;;;;;38.90;16.42;;;2.30;75.20;;;;;;4946027;29;20039;-74
2022/03/02 08:27:19;;;;;;;10.35;9.27;;;2.40;74.60;;;;;;4947839;29;20146;-74
2022/03/02 08:29:53;;;;;;;12.15;9.27;;;2.30;74.00;;;;;;4945936;29;20469;-75
2022/03/02 08:32:21;;;;;;;12.32;9.30;;;2.40;73.90;;;;;;4949058;29;20048;-74
2022/03/02 08:34:48;;;;;;;13.77;10.43;;;2.40;72.80;;;;;;4947395;29;20480;-75
2022/03/02 08:37:17;;;;;;;11.77;10.50;;;2.40;72.90;;;;;;4949825;29;20487;-74
2022/03/02 08:39:44;;;;;;;11.25;10.02;;;2.30;73.40;;;;;;4945550;29;20469;-74
2022/03/02 08:42:11;;;;;;;13.63;9.25;;;2.30;73.20;;;;;;4949163;29;20031;-74
2022/03/02 08:44:38;;;;;;;13.15;11.43;;;2.40;73.10;;;;;;4948246;29;20036;-74
2022/03/02 08:47:06;;;;;;;43.75;14.57;;;2.50;72.90;;;;;;4949105;29;20396;-74
2022/03/02 08:49:32;;;;;;;12.93;10.35;;;2.50;72.40;;;;;;4948777;29;20035;-74
2022/03/02 08:51:59;;;;;;;16.35;11.57;;;2.70;72.80;;;;;;4946799;29;20054;-74
2022/03/02 08:54:27;;;;;;;11.30;10.20;;;2.70;72.40;;;;;;4947672;29;20031;-74
2022/03/02 08:56:53;;;;;;;11.70;9.80;;;2.70;72.50;;;;;;4947861;29;20038;-74
2022/03/02 08:59:24;;;;;;;15.43;9.77;;;2.80;72.80;;;;;;4939649;29;20043;-74
2022/03/02 09:01:53;;;;;;;9.68;8.73;;;2.90;72.10;;;;;;4946784;29;20055;-74
2022/03/02 09:04:22;;;;;;;11.32;10.23;;;2.90;72.10;;;;;;4935129;29;20039;-74
2022/03/02 09:06:49;;;;;;;17.88;9.82;;;3.00;72.60;;;;;;4934966;29;20040;-74
2022/03/02 09:09:17;;;;;;;9.98;8.98;;;3.10;70.40;;;;;;4943383;29;20035;-74
2022/03/02 09:11:44;;;;;;;10.48;9.55;;;3.10;70.10;;;;;;4942640;29;20036;-74
2022/03/02 09:14:10;;;;;;;12.98;10.88;;;3.20;70.10;;;;;;4937293;29;20038;-74
2022/03/02 09:16:40;;;;;;;13.60;10.32;;;3.40;70.00;;;;;;4935871;29;20028;-74
2022/03/02 09:19:07;;;;;;;11.02;9.15;;;3.40;69.50;;;;;;4932960;28;20055;-75
2022/03/02 09:21:34;;;;;;;9.70;8.80;;;3.40;68.60;;;;;;4935520;29;20035;-74
2022/03/02 09:24:00;;;;;;;9.77;8.77;;;3.50;67.70;;;;;;4935397;29;20043;-74
2022/03/02 09:26:26;;;;;;;9.52;8.63;;;3.50;67.70;;;;;;4934752;29;20046;-74
2022/03/02 09:28:53;;;;;;;10.57;9.57;;;3.50;67.80;;;;;;4934748;29;20038;-74
2022/03/02 09:31:22;;;;;;;17.55;10.25;;;3.60;67.70;;;;;;4934537;29;20035;-75
2022/03/02 09:33:53;;;;;;;15.32;10.27;;;3.60;67.50;;;;;;4933609;29;20052;-74
2022/03/02 09:36:22;;;;;;;12.68;11.32;;;3.70;67.00;;;;;;4934712;29;20039;-74
2022/03/02 09:38:49;;;;;;;11.63;10.52;;;3.70;67.80;;;;;;4956282;28;20110;-75
2022/03/02 09:41:27;;;;;;;10.85;9.85;;;3.70;67.90;;;;;;4933870;29;20027;-74
2022/03/02 09:43:57;;;;;;;11.98;10.77;;;3.80;66.90;;;;;;4936839;29;20061;-75
2022/03/02 09:46:33;;;;;;;12.45;11.07;;;3.90;66.70;;;;;;4934329;29;20046;-75
2022/03/02 09:49:07;;;;;;;10.88;9.75;;;3.80;66.30;;;;;;4934323;29;20448;-75
2022/03/02 09:51:34;;;;;;;11.10;10.00;;;3.70;66.60;;;;;;4935511;29;20047;-74
2022/03/02 09:54:03;;;;;;;11.70;10.48;;;3.70;67.40;;;;;;4939777;29;20054;-74
2022/03/02 09:56:31;;;;;;;16.00;11.02;;;3.90;67.00;;;;;;4949763;28;20040;-75
2022/03/02 09:59:00;;;;;;;18.25;11.30;;;4.00;67.00;;;;;;4933939;29;20035;-74
2022/03/02 10:01:30;;;;;;;15.60;11.07;;;4.10;67.10;;;;;;4934252;29;20474;-74
2022/03/02 10:04:06;;;;;;;13.30;10.63;;;4.10;67.00;;;;;;4938889;29;20039;-74
2022/03/02 10:06:37;;;;;;;13.63;10.57;;;4.10;66.80;;;;;;4941324;29;20043;-74
2022/03/02 10:09:04;;;;;;;19.35;11.63;;;4.10;66.00;;;;;;4935215;29;20035;-74
2022/03/02 10:11:34;;;;;;;37.17;15.00;;;4.20;65.30;;;;;;4944242;29;20023;-74
2022/03/02 10:14:00;;;;;;;14.55;9.55;;;4.20;65.50;;;;;;4934479;29;20046;-74
2022/03/02 10:16:28;;;;;;;13.63;10.82;;;4.20;65.50;;;;;;4934957;29;20024;-74
2022/03/02 10:18:59;;;;;;;11.23;9.63;;;4.10;65.60;;;;;;4933650;29;20039;-74
2022/03/02 10:21:31;;;;;;;14.70;10.57;;;4.10;65.50;;;;;;4933974;29;20035;-75
2022/03/02 10:24:03;;;;;;;21.25;10.88;;;4.00;65.70;;;;;;4935247;29;20058;-75
2022/03/02 10:26:48;;;;;;;16.00;10.35;;;4.10;65.50;;;;;;4935167;29;20036;-74
2022/03/02 10:29:25;;;;;;;26.80;13.73;;;4.20;65.60;;;;;;4932822;29;20047;-75
2022/03/02 10:32:05;;;;;;;10.88;9.88;;;4.30;66.00;;;;;;4938615;29;20040;-74
2022/03/02 10:34:37;;;;;;;19.15;11.25;;;4.20;65.80;;;;;;4944613;29;20508;-75
2022/03/02 10:37:30;;;;;;;14.52;9.55;;;4.30;65.60;;;;;;4938630;29;20032;-75
2022/03/02 10:40:12;;;;;;;10.68;9.52;;;4.50;65.50;;;;;;4938573;29;20024;-75
2022/03/02 10:42:46;;;;;;;11.55;10.38;;;4.60;65.00;;;;;;4944157;29;20394;-75
2022/03/02 10:45:12;;;;;;;10.63;9.75;;;4.70;64.20;;;;;;4949917;29;20091;-75
2022/03/02 10:47:49;;;;;;;12.23;9.75;;;4.60;64.30;;;;;;4940662;29;20481;-75
2022/03/02 10:50:16;;;;;;;15.95;13.15;;;4.70;64.90;;;;;;4950503;28;20718;-75
2022/03/02 10:52:44;;;;;;;17.63;15.68;;;4.70;64.10;;;;;;4937797;29;20028;-75
2022/03/02 10:55:11;;;;;;;12.63;11.00;;;4.80;63.60;;;;;;4937887;29;20042;-75
2022/03/02 10:57:39;;;;;;;10.65;9.55;;;4.90;63.20;;;;;;4938458;29;20113;-74
2022/03/02 11:00:13;;;;;;;10.63;8.68;;;4.90;62.90;;;;;;4936166;29;20454;-75
2022/03/02 11:02:42;;;;;;;11.52;10.02;;;4.90;61.80;;;;;;4938262;29;20039;-75
2022/03/02 11:05:11;;;;;;;20.92;10.32;;;4.90;62.80;;;;;;4937235;29;20043;-75
2022/03/02 11:07:39;;;;;;;10.38;8.77;;;5.00;61.50;;;;;;4938522;29;20036;-74
2022/03/02 11:10:08;;;;;;;10.18;9.18;;;4.80;61.90;;;;;;4942653;29;20042;-75
2022/03/02 11:12:34;;;;;;;10.60;9.55;;;4.90;62.90;;;;;;4938376;29;20064;-74
2022/03/02 11:15:04;;;;;;;10.50;9.50;;;4.90;62.40;;;;;;4942223;29;20054;-75
2022/03/02 11:17:31;;;;;;;9.50;8.60;;;5.10;62.90;;;;;;4937971;29;20393;-75
2022/03/02 11:19:58;;;;;;;9.63;8.68;;;5.20;61.80;;;;;;4936338;29;20046;-75
2022/03/02 11:22:27;;;;;;;10.80;9.10;;;5.30;61.30;;;;;;4936410;29;20032;-75
2022/03/02 11:24:57;;;;;;;10.18;9.15;;;5.40;61.10;;;;;;4941352;29;20039;-74
2022/03/02 11:27:43;;;;;;;9.82;8.93;;;5.50;59.30;;;;;;4936843;29;20405;-75
2022/03/02 11:30:17;;;;;;;13.18;8.95;;;5.70;58.20;;;;;;4935879;29;20047;-76
2022/03/02 11:32:47;;;;;;;9.02;8.13;;;5.70;58.10;;;;;;4937018;29;20040;-75
2022/03/02 11:35:17;;;;;;;10.35;9.35;;;5.70;57.90;;;;;;4953207;29;20520;-75
2022/03/02 11:37:44;;;;;;;9.68;8.73;;;5.60;59.20;;;;;;4937548;29;20054;-75
2022/03/02 11:40:13;;;;;;;10.13;8.02;;;5.80;59.00;;;;;;4935289;29;20043;-75
2022/03/02 11:42:42;;;;;;;9.45;8.48;;;6.00;58.20;;;;;;4941265;29;20031;-75
2022/03/02 11:45:11;;;;;;;22.38;9.23;;;6.10;57.80;;;;;;4950761;29;20032;-75
2022/03/02 11:47:41;;;;;;;8.18;7.43;;;6.00;58.40;;;;;;4949818;29;20036;-75
2022/03/02 11:50:11;;;;;;;14.68;8.88;;;5.80;58.00;;;;;;4946331;29;20043;-75
2022/03/02 11:52:45;;;;;;;9.48;8.52;;;5.90;57.90;;;;;;4945694;29;20039;-75
2022/03/02 11:55:17;;;;;;;9.50;8.63;;;5.80;58.10;;;;;;4939284;29;20046;-75
2022/03/02 11:57:53;;;;;;;9.07;8.27;;;5.90;58.00;;;;;;4953540;29;20457;-75
2022/03/02 12:00:29;;;;;;;10.05;9.20;;;6.00;58.00;;;;;;4935025;29;20051;-75
2022/03/02 12:03:01;;;;;;;8.60;7.78;;;5.90;57.30;;;;;;4936773;29;20043;-75
2022/03/02 12:05:30;;;;;;;8.55;7.75;;;6.00;57.30;;;;;;4936401;29;20054;-75
2022/03/02 12:08:03;;;;;;;15.73;9.15;;;6.00;57.30;;;;;;4937087;29;20385;-75
2022/03/02 12:10:38;;;;;;;12.38;10.55;;;5.90;57.10;;;;;;4944200;29;20032;-75
2022/03/02 12:13:06;;;;;;;11.57;10.02;;;5.90;57.40;;;;;;4936780;29;20040;-75
2022/03/02 12:15:45;;;;;;;11.70;8.52;;;6.00;57.80;;;;;;4937468;29;20042;-75
2022/03/02 12:18:13;;;;;;;11.18;10.02;;;6.00;57.80;;;;;;4936490;29;20507;-75
2022/03/02 12:20:47;;;;;;;8.93;8.13;;;6.00;58.30;;;;;;4939201;29;20031;-76
2022/03/02 12:23:27;;;;;;;9.18;8.35;;;6.00;58.00;;;;;;4936679;29;20055;-75
2022/03/02 12:25:54;;;;;;;8.32;7.53;;;6.00;58.30;;;;;;4936671;29;20051;-76
2022/03/02 12:28:22;;;;;;;8.00;7.32;;;6.00;57.90;;;;;;4936106;29;20047;-76
2022/03/02 12:30:49;;;;;;;9.38;7.97;;;5.90;57.40;;;;;;4934896;29;20338;-75
2022/03/02 12:33:22;;;;;;;9.02;8.00;;;6.10;56.90;;;;;;4936790;29;20050;-75
2022/03/02 12:35:49;;;;;;;8.13;7.32;;;6.10;56.70;;;;;;4936579;29;20036;-75
2022/03/02 12:38:16;;;;;;;8.98;8.18;;;6.00;56.80;;;;;;4936018;29;20032;-75
2022/03/02 12:40:45;;;;;;;8.43;7.60;;;6.10;57.20;;;;;;4949883;29;20028;-75
2022/03/02 12:43:16;;;;;;;8.82;7.90;;;6.20;56.30;;;;;;4947436;29;20047;-75
2022/03/02 12:45:48;;;;;;;8.93;8.13;;;6.30;55.90;;;;;;4949102;29;20032;-75
2022/03/02 12:48:16;;;;;;;8.40;7.60;;;6.30;54.90;;;;;;4946169;29;20038;-75